createdAt,value
2022-09-21T00:00:30.499Z,86.34
2022-09-21T00:01:25.878Z,86.50
2022-09-21T00:02:20.884Z,86.53
2022-09-21T00:03:15.945Z,86.44
2022-09-21T00:04:11.892Z,86.58
2022-09-21T00:05:07.080Z,86.51
2022-09-21T00:06:02.327Z,86.26
2022-09-21T00:06:57.428Z,86.23
2022-09-21T00:07:52.792Z,86.12
2022-09-21T00:08:47.972Z,86.05
2022-09-21T00:09:44.322Z,85.98
2022-09-21T00:10:39.512Z,85.96
2022-09-21T00:11:34.656Z,85.60
2022-09-21T00:12:29.722Z,85.20
2022-09-21T00:13:24.951Z,85.10
2022-09-21T00:14:21.913Z,84.80
2022-09-21T00:15:16.990Z,84.86
2022-09-21T00:16:12.240Z,84.84
2022-09-21T00:17:07.319Z,84.50
2022-09-21T00:18:02.958Z,84.09
2022-09-21T00:18:58.146Z,83.65
2022-09-21T00:19:53.240Z,83.58
2022-09-21T00:20:48.488Z,83.50
2022-09-21T00:21:43.747Z,83.63
2022-09-21T00:22:38.826Z,83.79
2022-09-21T00:23:34.006Z,84.27
2022-09-21T00:24:29.125Z,84.64
2022-09-21T00:25:24.181Z,84.74
2022-09-21T00:26:19.389Z,84.81
2022-09-21T00:27:14.489Z,84.83
2022-09-21T00:28:09.845Z,84.72
2022-09-21T00:29:05.057Z,84.61
2022-09-21T00:30:00.183Z,84.46
2022-09-21T00:30:55.383Z,84.28
2022-09-21T00:31:50.635Z,84.17
2022-09-21T00:32:45.672Z,84.17
2022-09-21T00:33:40.874Z,84.09
2022-09-21T00:34:36.098Z,83.94
2022-09-21T00:35:31.303Z,83.68
2022-09-21T00:36:26.673Z,83.57
2022-09-21T00:37:21.778Z,83.56
2022-09-21T00:38:16.859Z,83.71
2022-09-21T00:39:11.962Z,83.87
2022-09-21T00:40:07.078Z,83.75
2022-09-21T00:41:02.084Z,83.56
2022-09-21T00:41:57.138Z,83.32
2022-09-21T00:42:52.189Z,83.28
2022-09-21T00:43:47.282Z,83.26
2022-09-21T00:44:42.380Z,83.32
2022-09-21T00:45:37.469Z,83.57
2022-09-21T00:46:32.559Z,83.59
2022-09-21T00:47:27.651Z,83.62
2022-09-21T00:48:22.736Z,83.55
2022-09-21T00:49:17.809Z,83.35
2022-09-21T00:50:12.938Z,83.40
2022-09-21T00:51:08.059Z,83.61
2022-09-21T00:52:03.125Z,83.86
2022-09-21T00:52:58.191Z,83.75
2022-09-21T00:53:53.283Z,83.63
2022-09-21T00:54:48.394Z,83.64
2022-09-21T00:55:43.500Z,83.65
2022-09-21T00:56:38.595Z,83.80
2022-09-21T00:57:33.651Z,83.81
2022-09-21T00:58:28.732Z,83.91
2022-09-21T00:59:28.058Z,83.89
2022-09-21T01:00:20.061Z,83.88
2022-09-21T01:01:14.268Z,83.86
2022-09-21T01:02:09.397Z,83.81
2022-09-21T01:03:04.619Z,83.71
2022-09-21T01:03:59.701Z,83.57
2022-09-21T01:04:56.155Z,83.85
2022-09-21T01:05:51.430Z,83.95
2022-09-21T01:06:47.189Z,83.94
2022-09-21T01:07:42.483Z,84.16
2022-09-21T01:08:37.621Z,84.34
2022-09-21T01:09:33.372Z,84.31
2022-09-21T01:10:28.716Z,84.23
2022-09-21T01:11:24.481Z,84.30
2022-09-21T01:12:19.544Z,84.30
2022-09-21T01:13:14.921Z,83.94
2022-09-21T01:14:10.855Z,83.92
2022-09-21T01:15:06.107Z,84.04
2022-09-21T01:16:01.397Z,84.33
2022-09-21T01:16:57.652Z,84.77
2022-09-21T01:17:52.912Z,84.97
2022-09-21T01:18:48.668Z,84.65
2022-09-21T01:19:43.759Z,84.09
2022-09-21T01:20:38.956Z,83.70
2022-09-21T01:21:34.652Z,83.31
2022-09-21T01:22:29.753Z,83.12
2022-09-21T01:23:25.670Z,82.99
2022-09-21T01:24:20.752Z,82.78
2022-09-21T01:25:16.129Z,83.02
2022-09-21T01:26:11.933Z,83.33
2022-09-21T01:27:07.334Z,83.33
2022-09-21T01:28:02.383Z,83.32
2022-09-21T01:28:58.709Z,83.46
2022-09-21T01:29:53.929Z,83.56
2022-09-21T01:30:49.848Z,83.71
2022-09-21T01:31:45.115Z,83.90
2022-09-21T01:32:40.387Z,84.25
2022-09-21T01:33:36.062Z,84.60
2022-09-21T01:34:31.284Z,84.62
2022-09-21T01:35:27.079Z,84.67
2022-09-21T01:36:22.281Z,84.67
2022-09-21T01:37:17.646Z,84.71
2022-09-21T01:38:13.337Z,84.87
2022-09-21T01:39:08.549Z,84.82
2022-09-21T01:40:03.711Z,84.62
2022-09-21T01:41:00.115Z,84.73
2022-09-21T01:41:55.386Z,84.72
2022-09-21T01:42:51.154Z,84.73
2022-09-21T01:43:46.346Z,84.88
2022-09-21T01:44:41.571Z,85.07
2022-09-21T01:45:37.240Z,85.15
2022-09-21T01:46:32.526Z,85.07
2022-09-21T01:47:28.323Z,84.67
2022-09-21T01:48:23.513Z,84.28
2022-09-21T01:49:18.791Z,84.02
2022-09-21T01:50:14.598Z,83.76
2022-09-21T01:51:09.751Z,83.71
2022-09-21T01:52:04.808Z,83.86
2022-09-21T01:53:01.140Z,83.87
2022-09-21T01:53:56.358Z,83.98
2022-09-21T01:54:52.137Z,83.85
2022-09-21T01:55:47.367Z,83.61
2022-09-21T01:56:42.523Z,83.40
2022-09-21T01:57:38.319Z,83.28
2022-09-21T01:58:33.559Z,83.36
2022-09-21T01:59:29.457Z,83.52
2022-09-21T02:00:24.561Z,84.00
2022-09-21T02:01:19.885Z,84.05
2022-09-21T02:02:15.745Z,84.13
2022-09-21T02:03:10.834Z,84.11
2022-09-21T02:04:06.308Z,84.34
2022-09-21T02:05:01.299Z,84.40
2022-09-21T02:05:56.393Z,84.57
2022-09-21T02:06:52.201Z,84.54
2022-09-21T02:07:47.451Z,84.55
2022-09-21T02:08:43.359Z,84.47
2022-09-21T02:09:38.448Z,84.77
2022-09-21T02:10:33.801Z,85.06
2022-09-21T02:11:29.606Z,85.10
2022-09-21T02:12:24.860Z,85.28
2022-09-21T02:13:20.070Z,85.62
2022-09-21T02:14:16.401Z,85.95
2022-09-21T02:15:11.657Z,85.88
2022-09-21T02:16:07.505Z,85.93
2022-09-21T02:17:02.628Z,85.83
2022-09-21T02:17:57.991Z,85.52
2022-09-21T02:18:53.667Z,85.24
2022-09-21T02:19:48.902Z,84.71
2022-09-21T02:20:44.098Z,84.16
2022-09-21T02:21:39.284Z,83.75
2022-09-21T02:22:34.641Z,83.70
2022-09-21T02:23:29.746Z,83.79
2022-09-21T02:24:24.846Z,83.57
2022-09-21T02:25:19.841Z,83.62
2022-09-21T02:26:14.978Z,83.68
2022-09-21T02:27:09.923Z,83.69
2022-09-21T02:28:04.995Z,83.53
2022-09-21T02:29:00.113Z,83.79
2022-09-21T02:29:55.163Z,84.04
2022-09-21T02:30:50.278Z,84.22
2022-09-21T02:31:45.366Z,84.11
2022-09-21T02:32:41.819Z,84.47
2022-09-21T02:33:37.023Z,84.13
2022-09-21T02:34:32.149Z,83.92
2022-09-21T02:35:27.372Z,83.93
2022-09-21T02:36:22.513Z,83.99
2022-09-21T02:37:17.572Z,84.25
2022-09-21T02:38:12.699Z,84.36
2022-09-21T02:39:07.799Z,84.36
2022-09-21T02:40:02.983Z,84.38
2022-09-21T02:40:57.935Z,84.28
2022-09-21T02:41:53.188Z,84.29
2022-09-21T02:42:48.159Z,84.42
2022-09-21T02:43:43.277Z,84.45
2022-09-21T02:44:38.347Z,84.45
2022-09-21T02:45:33.444Z,84.60
2022-09-21T02:46:28.556Z,84.32
2022-09-21T02:47:23.625Z,83.85
2022-09-21T02:48:18.694Z,83.61
2022-09-21T02:49:13.830Z,83.59
2022-09-21T02:50:08.993Z,83.48
2022-09-21T02:51:03.948Z,83.38
2022-09-21T02:51:59.139Z,83.53
2022-09-21T02:52:54.351Z,83.60
2022-09-21T02:53:49.471Z,83.46
2022-09-21T02:54:44.560Z,83.58
2022-09-21T02:55:39.941Z,83.52
2022-09-21T02:56:35.035Z,83.30
2022-09-21T02:57:30.204Z,83.25
2022-09-21T02:58:25.441Z,83.14
2022-09-21T02:59:20.413Z,83.27
2022-09-21T03:00:15.910Z,83.26
2022-09-21T03:01:10.986Z,83.16
2022-09-21T03:02:06.243Z,83.16
2022-09-21T03:03:01.341Z,83.27
2022-09-21T03:03:56.528Z,83.53
2022-09-21T03:04:51.736Z,83.84
2022-09-21T03:05:46.854Z,84.35
2022-09-21T03:06:42.058Z,84.78
2022-09-21T03:07:37.411Z,85.00
2022-09-21T03:08:32.528Z,84.87
2022-09-21T03:09:27.618Z,84.99
2022-09-21T03:10:22.709Z,84.90
2022-09-21T03:11:18.055Z,84.86
2022-09-21T03:12:13.164Z,84.53
2022-09-21T03:13:08.255Z,84.51
2022-09-21T03:14:03.460Z,84.49
2022-09-21T03:14:58.570Z,84.82
2022-09-21T03:15:53.967Z,84.87
2022-09-21T03:16:49.225Z,84.85
2022-09-21T03:17:44.331Z,84.84
2022-09-21T03:18:39.562Z,84.93
2022-09-21T03:19:34.653Z,85.07
2022-09-21T03:20:29.843Z,84.93
2022-09-21T03:21:25.039Z,84.88
2022-09-21T03:22:20.341Z,85.08
2022-09-21T03:23:15.390Z,85.07
2022-09-21T03:24:10.710Z,85.09
2022-09-21T03:25:05.788Z,84.97
2022-09-21T03:26:00.971Z,84.90
2022-09-21T03:26:56.093Z,84.77
2022-09-21T03:27:51.191Z,84.79
2022-09-21T03:28:46.279Z,84.85
2022-09-21T03:29:41.360Z,84.74
2022-09-21T03:30:36.420Z,84.89
2022-09-21T03:31:31.725Z,84.97
2022-09-21T03:32:26.748Z,84.75
2022-09-21T03:33:21.731Z,84.85
2022-09-21T03:34:20.886Z,84.95
2022-09-21T03:35:15.974Z,85.10
2022-09-21T03:36:11.307Z,84.89
2022-09-21T03:37:06.300Z,84.64
2022-09-21T03:38:01.404Z,84.41
2022-09-21T03:38:56.605Z,84.53
2022-09-21T03:39:51.695Z,84.59
2022-09-21T03:40:46.904Z,84.44
2022-09-21T03:41:41.994Z,84.82
2022-09-21T03:42:37.101Z,84.81
2022-09-21T03:43:32.180Z,84.63
2022-09-21T03:44:27.532Z,84.58
2022-09-21T03:45:22.621Z,84.65
2022-09-21T03:46:17.865Z,84.76
2022-09-21T03:47:12.920Z,84.92
2022-09-21T03:48:08.311Z,84.65
2022-09-21T03:49:03.400Z,84.47
2022-09-21T03:49:58.505Z,84.26
2022-09-21T03:50:53.718Z,84.26
2022-09-21T03:51:48.823Z,84.14
2022-09-21T03:52:44.014Z,84.24
2022-09-21T03:53:39.239Z,84.42
2022-09-21T03:54:34.387Z,84.47
2022-09-21T03:55:29.447Z,84.57
2022-09-21T03:56:24.786Z,84.63
2022-09-21T03:57:19.895Z,84.84
2022-09-21T03:58:14.997Z,85.38
2022-09-21T03:59:13.935Z,85.39
2022-09-21T04:00:05.417Z,85.16
2022-09-21T04:01:00.535Z,84.84
2022-09-21T04:01:55.729Z,84.77
2022-09-21T04:02:50.975Z,84.50
2022-09-21T04:03:46.067Z,84.50
2022-09-21T04:04:41.433Z,84.55
2022-09-21T04:05:36.630Z,84.24
2022-09-21T04:06:31.872Z,84.02
2022-09-21T04:07:27.139Z,84.19
2022-09-21T04:08:22.234Z,84.42
2022-09-21T04:09:17.431Z,84.26
2022-09-21T04:10:12.660Z,84.16
2022-09-21T04:11:07.760Z,83.96
2022-09-21T04:12:02.990Z,84.02
2022-09-21T04:12:58.229Z,84.26
2022-09-21T04:13:53.401Z,84.37
2022-09-21T04:14:48.499Z,84.46
2022-09-21T04:15:43.672Z,84.56
2022-09-21T04:16:38.716Z,84.69
2022-09-21T04:17:34.088Z,84.56
2022-09-21T04:18:29.184Z,84.41
2022-09-21T04:19:24.248Z,84.31
2022-09-21T04:20:19.345Z,84.46
2022-09-21T04:21:14.703Z,84.32
2022-09-21T04:22:09.941Z,84.27
2022-09-21T04:23:05.018Z,84.34
2022-09-21T04:24:00.247Z,84.11
2022-09-21T04:24:55.352Z,84.12
2022-09-21T04:25:50.548Z,84.06
2022-09-21T04:26:45.773Z,84.49
2022-09-21T04:27:40.875Z,84.61
2022-09-21T04:28:36.082Z,84.44
2022-09-21T04:29:31.315Z,84.42
2022-09-21T04:30:26.400Z,84.45
2022-09-21T04:31:21.561Z,84.66
2022-09-21T04:32:16.552Z,84.66
2022-09-21T04:33:11.650Z,84.52
2022-09-21T04:34:06.872Z,84.58
2022-09-21T04:35:01.978Z,84.78
2022-09-21T04:35:57.036Z,84.49
2022-09-21T04:36:52.135Z,84.26
2022-09-21T04:37:47.248Z,84.46
2022-09-21T04:38:42.447Z,84.13
2022-09-21T04:39:37.558Z,83.88
2022-09-21T04:40:32.697Z,83.73
2022-09-21T04:41:27.678Z,83.61
2022-09-21T04:42:22.794Z,83.29
2022-09-21T04:43:22.500Z,83.22
2022-09-21T04:44:12.913Z,83.11
2022-09-21T04:45:07.999Z,83.46
2022-09-21T04:46:03.085Z,83.44
2022-09-21T04:46:58.090Z,83.26
2022-09-21T04:47:53.092Z,82.96
2022-09-21T04:48:48.097Z,82.45
2022-09-21T04:49:43.138Z,82.14
2022-09-21T04:50:38.263Z,82.07
2022-09-21T04:51:33.334Z,81.99
2022-09-21T04:52:28.450Z,82.05
2022-09-21T04:53:23.749Z,82.32
2022-09-21T04:54:19.022Z,82.85
2022-09-21T04:55:14.172Z,82.91
2022-09-21T04:56:09.600Z,83.13
2022-09-21T04:57:04.639Z,83.54
2022-09-21T04:58:01.141Z,83.67
2022-09-21T04:58:56.470Z,83.82
2022-09-21T04:59:52.302Z,83.86
2022-09-21T05:00:47.509Z,84.12
2022-09-21T05:01:42.754Z,84.54
2022-09-21T05:02:38.511Z,84.54
2022-09-21T05:03:33.792Z,84.38
2022-09-21T05:04:29.533Z,84.33
2022-09-21T05:05:24.776Z,84.21
2022-09-21T05:06:20.237Z,84.30
2022-09-21T05:07:15.915Z,84.48
2022-09-21T05:08:11.314Z,84.30
2022-09-21T05:09:06.447Z,84.43
2022-09-21T05:10:02.964Z,84.54
2022-09-21T05:10:58.255Z,84.55
2022-09-21T05:11:53.965Z,84.50
2022-09-21T05:12:49.246Z,84.53
2022-09-21T05:13:44.503Z,84.52
2022-09-21T05:14:40.352Z,84.47
2022-09-21T05:15:35.670Z,84.43
2022-09-21T05:16:31.503Z,84.33
2022-09-21T05:17:26.709Z,84.52
2022-09-21T05:18:22.100Z,84.62
2022-09-21T05:19:17.972Z,84.68
2022-09-21T05:20:13.220Z,84.40
2022-09-21T05:21:08.933Z,84.37
2022-09-21T05:22:04.819Z,84.34
2022-09-21T05:23:00.104Z,84.25
2022-09-21T05:23:55.951Z,84.22
2022-09-21T05:24:51.243Z,84.18
2022-09-21T05:25:46.669Z,84.05
2022-09-21T05:26:42.298Z,83.79
2022-09-21T05:27:37.605Z,83.45
2022-09-21T05:28:36.586Z,83.21
2022-09-21T05:29:29.818Z,83.28
2022-09-21T05:30:24.681Z,83.45
2022-09-21T05:31:20.068Z,83.57
2022-09-21T05:32:15.780Z,83.64
2022-09-21T05:33:10.942Z,83.50
2022-09-21T05:34:06.260Z,83.62
2022-09-21T05:35:02.035Z,83.79
2022-09-21T05:35:57.374Z,83.67
2022-09-21T05:36:52.846Z,83.62
2022-09-21T05:37:49.005Z,83.81
2022-09-21T05:38:44.330Z,84.02
2022-09-21T05:39:40.110Z,84.17
2022-09-21T05:40:35.565Z,84.00
2022-09-21T05:41:31.079Z,84.07
2022-09-21T05:42:26.723Z,83.98
2022-09-21T05:43:22.054Z,83.94
2022-09-21T05:44:17.823Z,84.22
2022-09-21T05:45:13.134Z,84.36
2022-09-21T05:46:08.592Z,85.22
2022-09-21T05:47:04.218Z,85.84
2022-09-21T05:47:59.564Z,85.60
2022-09-21T05:48:54.877Z,85.73
2022-09-21T05:49:51.206Z,85.85
2022-09-21T05:50:46.565Z,85.86
2022-09-21T05:51:42.329Z,85.89
2022-09-21T05:52:37.667Z,85.48
2022-09-21T05:53:33.014Z,85.06
2022-09-21T05:54:28.768Z,84.89
2022-09-21T05:55:24.136Z,84.53
2022-09-21T05:56:19.896Z,84.39
2022-09-21T05:57:15.256Z,84.45
2022-09-21T05:58:10.632Z,84.01
2022-09-21T05:59:06.762Z,84.25
2022-09-21T06:00:02.125Z,84.00
2022-09-21T06:00:57.941Z,84.53
2022-09-21T06:01:53.222Z,84.61
2022-09-21T06:02:48.699Z,84.45
2022-09-21T06:03:44.308Z,83.84
2022-09-21T06:04:39.623Z,83.76
2022-09-21T06:05:35.359Z,83.57
2022-09-21T06:06:30.684Z,83.16
2022-09-21T06:07:26.085Z,82.38
2022-09-21T06:08:21.780Z,82.16
2022-09-21T06:09:17.177Z,82.17
2022-09-21T06:10:12.552Z,82.37
2022-09-21T06:11:08.929Z,82.48
2022-09-21T06:12:04.320Z,82.74
2022-09-21T06:12:59.994Z,82.99
2022-09-21T06:13:55.469Z,83.00
2022-09-21T06:14:50.701Z,82.87
2022-09-21T06:15:46.105Z,82.26
2022-09-21T06:16:41.573Z,81.70
2022-09-21T06:17:38.023Z,81.48
2022-09-21T06:18:33.419Z,81.55
2022-09-21T06:19:28.790Z,81.66
2022-09-21T06:20:24.591Z,81.76
2022-09-21T06:21:20.026Z,81.84
2022-09-21T06:22:15.484Z,82.02
2022-09-21T06:23:10.869Z,82.12
2022-09-21T06:24:05.886Z,82.29
2022-09-21T06:25:00.889Z,82.26
2022-09-21T06:25:58.413Z,82.22
2022-09-21T06:26:51.010Z,82.02
2022-09-21T06:27:46.042Z,81.99
2022-09-21T06:28:41.153Z,81.95
2022-09-21T06:29:36.143Z,81.88
2022-09-21T06:30:31.159Z,81.81
2022-09-21T06:31:29.620Z,81.66
2022-09-21T06:32:24.873Z,81.47
2022-09-21T06:33:19.770Z,81.40
2022-09-21T06:34:14.797Z,81.38
2022-09-21T06:35:09.867Z,81.44
2022-09-21T06:36:04.962Z,81.24
2022-09-21T06:36:59.950Z,81.05
2022-09-21T06:37:55.060Z,80.86
2022-09-21T06:38:50.062Z,80.72
2022-09-21T06:39:45.132Z,80.54
2022-09-21T06:40:41.280Z,80.35
2022-09-21T06:41:36.644Z,80.22
2022-09-21T06:42:32.376Z,80.13
2022-09-21T06:43:27.749Z,79.89
2022-09-21T06:44:23.114Z,79.39
2022-09-21T06:45:18.961Z,79.12
2022-09-21T06:46:14.379Z,78.75
2022-09-21T06:47:10.286Z,78.67
2022-09-21T06:48:05.578Z,78.60
2022-09-21T06:49:00.940Z,78.31
2022-09-21T06:49:56.731Z,77.95
2022-09-21T06:50:52.156Z,77.59
2022-09-21T06:51:47.668Z,77.41
2022-09-21T06:52:44.210Z,77.39
2022-09-21T06:53:39.428Z,77.43
2022-09-21T06:54:35.354Z,76.99
2022-09-21T06:55:30.738Z,76.70
2022-09-21T06:56:26.119Z,76.65
2022-09-21T06:57:21.996Z,76.44
2022-09-21T06:58:17.353Z,76.33
2022-09-21T06:59:13.258Z,76.13
2022-09-21T07:00:08.507Z,76.09
2022-09-21T07:01:03.952Z,75.78
2022-09-21T07:01:59.756Z,75.65
2022-09-21T07:02:55.032Z,75.49
2022-09-21T07:03:50.507Z,75.69
2022-09-21T07:04:46.748Z,75.70
2022-09-21T07:05:42.123Z,75.54
2022-09-21T07:06:37.955Z,75.04
2022-09-21T07:07:33.345Z,74.54
2022-09-21T07:10:21.141Z,73.69
2022-09-21T07:11:15.683Z,73.25
2022-09-21T07:12:11.289Z,72.73
2022-09-21T07:13:06.573Z,72.68
2022-09-21T07:14:02.473Z,72.52
2022-09-21T07:14:57.950Z,71.94
2022-09-21T07:15:53.518Z,71.80
2022-09-21T07:16:49.684Z,71.75
2022-09-21T07:17:50.302Z,71.43
2022-09-21T07:18:43.924Z,71.61
2022-09-21T07:19:36.417Z,71.90
2022-09-21T07:20:31.821Z,71.60
2022-09-21T07:21:27.594Z,71.26
2022-09-21T07:22:23.075Z,71.06
2022-09-21T07:23:18.979Z,70.76
2022-09-21T07:24:14.369Z,70.94
2022-09-21T07:25:09.927Z,71.01
2022-09-21T07:26:05.707Z,70.85
2022-09-21T07:27:01.082Z,70.28
2022-09-21T07:27:56.552Z,69.75
2022-09-21T07:28:52.902Z,69.32
2022-09-21T07:29:48.630Z,69.70
2022-09-21T07:30:43.780Z,70.61
2022-09-21T07:31:38.875Z,70.27
2022-09-21T07:32:33.857Z,70.44
2022-09-21T07:33:31.662Z,71.27
2022-09-21T07:34:24.983Z,71.88
2022-09-21T07:35:19.031Z,72.24
2022-09-21T07:36:14.144Z,72.65
2022-09-21T07:37:09.360Z,72.82
2022-09-21T07:38:04.312Z,72.70
2022-09-21T07:38:59.746Z,72.35
2022-09-21T07:39:55.425Z,72.26
2022-09-21T07:40:51.066Z,72.56
2022-09-21T07:41:46.533Z,72.61
2022-09-21T07:42:42.330Z,73.04
2022-09-21T07:43:37.708Z,72.39
2022-09-21T07:44:33.561Z,71.94
2022-09-21T07:45:29.055Z,72.66
2022-09-21T07:46:24.418Z,73.78
2022-09-21T07:47:20.111Z,74.31
2022-09-21T07:48:15.539Z,75.02
2022-09-21T07:49:12.143Z,75.70
2022-09-21T07:50:07.577Z,75.05
2022-09-21T07:51:02.990Z,74.64
2022-09-21T07:52:03.692Z,74.23
2022-09-21T07:52:55.206Z,73.24
2022-09-21T07:53:49.266Z,71.65
2022-09-21T07:54:44.262Z,70.87
2022-09-21T07:55:39.289Z,70.08
2022-09-21T07:56:34.274Z,69.40
2022-09-21T07:57:29.410Z,69.34
2022-09-21T07:58:24.538Z,70.00
2022-09-21T07:59:19.646Z,68.46
2022-09-21T08:00:14.661Z,67.43
2022-09-21T08:01:09.709Z,67.73
2022-09-21T08:02:04.723Z,68.84
2022-09-21T08:02:59.807Z,68.54
2022-09-21T08:03:54.796Z,68.57
2022-09-21T08:04:49.795Z,68.25
2022-09-21T08:05:45.238Z,67.51
2022-09-21T08:06:40.638Z,66.85
2022-09-21T08:07:36.435Z,65.33
2022-09-21T08:08:31.974Z,65.39
2022-09-21T08:09:27.764Z,66.14
2022-09-21T08:10:23.238Z,67.23
2022-09-21T08:11:18.797Z,68.11
2022-09-21T08:12:14.454Z,68.59
2022-09-21T08:13:09.868Z,68.37
2022-09-21T08:14:05.467Z,68.32
2022-09-21T08:15:01.532Z,68.02
2022-09-21T08:15:57.079Z,67.78
2022-09-21T08:16:52.982Z,66.61
2022-09-21T08:17:48.374Z,66.08
2022-09-21T08:18:43.771Z,66.22
2022-09-21T08:19:39.463Z,66.83
2022-09-21T08:20:35.063Z,67.69
2022-09-21T08:21:30.869Z,66.44
2022-09-21T08:22:26.356Z,66.67
2022-09-21T08:23:21.583Z,67.31
2022-09-21T08:24:17.530Z,67.73
2022-09-21T08:25:13.050Z,67.34
2022-09-21T08:26:08.557Z,67.63
2022-09-21T08:27:04.828Z,67.96
2022-09-21T08:28:00.444Z,67.23
2022-09-21T08:28:56.127Z,67.53
2022-09-21T08:29:51.552Z,67.87
2022-09-21T08:30:46.973Z,67.70
2022-09-21T08:31:42.845Z,67.61
2022-09-21T08:32:50.343Z,67.10
2022-09-21T08:33:35.336Z,67.95
2022-09-21T08:34:29.793Z,68.34
2022-09-21T08:35:25.021Z,68.34
2022-09-21T08:36:21.780Z,68.25
2022-09-21T08:37:17.173Z,68.39
2022-09-21T08:38:12.689Z,67.99
2022-09-21T08:39:08.798Z,67.72
2022-09-21T08:40:04.384Z,67.96
2022-09-21T08:41:00.147Z,67.35
2022-09-21T08:41:55.670Z,67.26
2022-09-21T08:42:51.095Z,67.18
2022-09-21T08:43:46.769Z,66.84
2022-09-21T08:44:42.247Z,66.66
2022-09-21T08:45:38.205Z,66.77
2022-09-21T08:46:33.774Z,66.73
2022-09-21T08:47:29.047Z,66.57
2022-09-21T08:48:29.047Z,66.35
2022-09-21T08:49:21.272Z,65.76
2022-09-21T08:50:15.751Z,65.88
2022-09-21T08:51:10.865Z,65.25
2022-09-21T08:52:05.973Z,65.32
2022-09-21T08:53:01.003Z,65.53
2022-09-21T08:53:55.988Z,65.03
2022-09-21T08:54:51.108Z,64.75
2022-09-21T08:55:46.162Z,65.33
2022-09-21T08:57:03.555Z,66.08
2022-09-21T08:57:37.168Z,65.83
2022-09-21T08:58:31.247Z,64.67
2022-09-21T08:59:26.239Z,63.17
2022-09-21T09:00:21.340Z,63.29
2022-09-21T09:01:16.536Z,63.19
2022-09-21T09:02:11.656Z,63.30
2022-09-21T09:03:06.632Z,63.68
2022-09-21T09:04:04.494Z,64.05
2022-09-21T09:04:56.733Z,64.43
2022-09-21T09:05:51.745Z,64.10
2022-09-21T09:06:46.900Z,64.52
2022-09-21T09:07:41.912Z,65.27
2022-09-21T09:08:37.025Z,65.99
2022-09-21T09:09:32.019Z,67.11
2022-09-21T09:10:30.658Z,67.27
2022-09-21T09:11:25.671Z,67.23
2022-09-21T09:12:20.686Z,66.79
2022-09-21T09:13:15.803Z,66.83
2022-09-21T09:14:10.795Z,67.24
2022-09-21T09:15:05.810Z,67.10
2022-09-21T09:16:00.859Z,66.94
2022-09-21T09:16:55.840Z,66.07
2022-09-21T09:17:50.971Z,65.72
2022-09-21T09:18:46.644Z,65.26
2022-09-21T09:19:41.997Z,65.21
2022-09-21T09:20:37.683Z,65.58
2022-09-21T09:21:33.382Z,65.39
2022-09-21T09:22:28.897Z,65.26
2022-09-21T09:23:24.600Z,64.95
2022-09-21T09:24:20.135Z,64.95
2022-09-21T09:25:15.656Z,65.12
2022-09-21T09:26:11.865Z,65.50
2022-09-21T09:27:06.959Z,65.79
2022-09-21T09:28:02.490Z,65.23
2022-09-21T09:28:58.727Z,63.87
2022-09-21T09:29:54.266Z,62.70
2022-09-21T09:30:50.117Z,61.05
2022-09-21T09:31:45.619Z,60.92
2022-09-21T09:32:41.035Z,60.76
2022-09-21T09:33:36.742Z,60.67
2022-09-21T09:34:32.271Z,60.91
2022-09-21T09:35:28.104Z,60.31
2022-09-21T09:36:46.562Z,60.03
2022-09-21T09:37:20.084Z,58.97
2022-09-21T09:38:14.837Z,59.30
2022-09-21T09:39:10.219Z,59.51
2022-09-21T09:40:05.808Z,59.61
2022-09-21T09:41:01.903Z,60.97
2022-09-21T09:41:57.411Z,62.27
2022-09-21T09:42:53.219Z,62.06
2022-09-21T09:43:48.698Z,61.42
2022-09-21T09:44:44.227Z,60.29
2022-09-21T09:45:39.923Z,58.95
2022-09-21T09:46:35.465Z,58.95
2022-09-21T09:47:31.261Z,57.53
2022-09-21T09:48:26.836Z,58.04
2022-09-21T09:49:22.159Z,58.11
2022-09-21T09:50:18.000Z,59.35
2022-09-21T09:51:13.542Z,59.86
2022-09-21T09:52:08.935Z,59.55
2022-09-21T09:53:05.180Z,59.86
2022-09-21T09:54:00.870Z,60.57
2022-09-21T09:54:56.551Z,60.89
2022-09-21T09:55:51.984Z,60.16
2022-09-21T09:56:47.498Z,59.65
2022-09-21T09:57:43.274Z,59.54
2022-09-21T09:58:38.683Z,60.79
2022-09-21T09:59:34.477Z,60.92
2022-09-21T10:00:29.760Z,60.44
2022-09-21T10:01:25.205Z,59.40
2022-09-21T10:02:20.840Z,59.34
2022-09-21T10:03:16.368Z,58.51
2022-09-21T10:04:11.801Z,57.86
2022-09-21T10:05:08.008Z,56.16
2022-09-21T10:06:03.518Z,56.35
2022-09-21T10:06:59.161Z,56.87
2022-09-21T10:07:55.269Z,56.51
2022-09-21T10:08:50.716Z,58.13
2022-09-21T10:09:46.589Z,60.07
2022-09-21T10:10:42.128Z,59.74
2022-09-21T10:11:37.689Z,59.33
2022-09-21T10:12:33.224Z,58.70
2022-09-21T10:13:28.905Z,57.70
2022-09-21T10:14:24.572Z,57.92
2022-09-21T10:15:19.859Z,57.84
2022-09-21T10:16:15.331Z,59.54
2022-09-21T10:17:11.328Z,58.34
2022-09-21T10:18:06.714Z,57.62
2022-09-21T10:19:02.256Z,56.39
2022-09-21T10:19:58.526Z,55.14
2022-09-21T10:20:54.061Z,55.75
2022-09-21T10:21:52.136Z,56.15
2022-09-21T10:22:44.855Z,54.96
2022-09-21T10:23:41.796Z,53.73
2022-09-21T10:24:36.926Z,52.99
2022-09-21T10:25:34.814Z,52.93
2022-09-21T10:26:29.004Z,53.36
2022-09-21T10:27:23.184Z,53.11
2022-09-21T10:28:18.215Z,53.42
2022-09-21T10:29:13.246Z,52.74
2022-09-21T10:30:08.218Z,53.63
2022-09-21T10:31:03.368Z,53.68
2022-09-21T10:32:03.890Z,53.59
2022-09-21T10:32:59.414Z,52.65
2022-09-21T10:33:54.947Z,52.81
2022-09-21T10:34:50.935Z,52.12
2022-09-21T10:35:46.393Z,53.03
2022-09-21T10:36:41.927Z,53.42
2022-09-21T10:37:38.144Z,52.25
2022-09-21T10:38:33.705Z,52.27
2022-09-21T10:39:29.546Z,51.75
2022-09-21T10:40:24.984Z,52.19
2022-09-21T10:41:20.612Z,51.72
2022-09-21T10:42:16.561Z,53.32
2022-09-21T10:43:12.021Z,54.53
2022-09-21T10:44:08.023Z,54.97
2022-09-21T10:45:03.578Z,55.39
2022-09-21T10:45:58.972Z,55.41
2022-09-21T10:47:50.201Z,54.71
2022-09-21T10:48:45.603Z,53.84
2022-09-21T10:49:42.006Z,53.40
2022-09-21T10:50:37.621Z,53.39
2022-09-21T10:51:33.516Z,52.61
2022-09-21T10:52:28.975Z,53.26
2022-09-21T10:53:24.472Z,53.90
2022-09-21T10:54:20.234Z,55.88
2022-09-21T10:55:15.721Z,57.24
2022-09-21T10:56:16.062Z,57.03
2022-09-21T10:57:06.931Z,56.24
2022-09-21T10:58:02.988Z,54.85
2022-09-21T10:58:58.269Z,54.26
2022-09-21T10:59:54.160Z,54.12
2022-09-21T11:00:49.689Z,55.21
2022-09-21T11:01:45.238Z,56.23
2022-09-21T11:02:41.036Z,56.56
2022-09-21T11:03:36.559Z,55.55
2022-09-21T11:04:31.970Z,54.67
2022-09-21T11:05:28.448Z,54.12
2022-09-21T11:06:23.861Z,52.73
2022-09-21T11:07:19.940Z,51.92
2022-09-21T11:08:19.515Z,52.13
2022-09-21T11:09:14.896Z,52.56
2022-09-21T11:10:10.640Z,53.46
2022-09-21T11:11:06.098Z,54.30
2022-09-21T11:12:01.584Z,54.86
2022-09-21T11:12:57.099Z,55.71
2022-09-21T11:13:53.572Z,55.41
2022-09-21T11:14:49.063Z,55.11
2022-09-21T11:15:44.892Z,55.31
2022-09-21T11:16:40.384Z,55.52
2022-09-21T11:17:35.901Z,54.15
2022-09-21T11:18:31.828Z,52.38
2022-09-21T11:19:27.295Z,52.27
2022-09-21T11:20:23.005Z,52.05
2022-09-21T11:21:18.539Z,50.88
2022-09-21T11:22:14.033Z,50.63
2022-09-21T11:23:09.846Z,49.81
2022-09-21T11:24:05.225Z,49.13
2022-09-21T11:25:00.731Z,49.02
2022-09-21T11:25:56.987Z,49.76
2022-09-21T11:26:52.409Z,50.39
2022-09-21T11:27:48.205Z,50.35
2022-09-21T11:28:43.882Z,49.85
2022-09-21T11:29:39.469Z,50.36
2022-09-21T11:30:34.936Z,51.64
2022-09-21T11:31:29.851Z,52.13
2022-09-21T11:32:24.927Z,53.29
2022-09-21T11:33:20.013Z,54.44
2022-09-21T11:34:15.083Z,55.45
2022-09-21T11:35:10.134Z,56.29
2022-09-21T11:36:05.281Z,56.90
2022-09-21T11:37:00.361Z,56.12
2022-09-21T11:37:55.362Z,54.26
2022-09-21T11:38:50.352Z,53.53
2022-09-21T11:39:45.473Z,52.13
2022-09-21T11:40:40.771Z,52.25
2022-09-21T11:41:38.686Z,53.13
2022-09-21T11:42:33.687Z,52.62
2022-09-21T11:43:28.784Z,53.03
2022-09-21T11:44:23.770Z,53.49
2022-09-21T11:45:18.931Z,53.66
2022-09-21T11:46:13.974Z,53.11
2022-09-21T11:47:08.930Z,52.32
2022-09-21T11:48:04.000Z,51.15
2022-09-21T11:48:59.132Z,51.44
2022-09-21T11:50:07.741Z,52.01
2022-09-21T11:51:45.491Z,52.18
2022-09-21T11:52:41.213Z,54.44
2022-09-21T11:53:36.708Z,54.85
2022-09-21T11:54:32.241Z,54.47
2022-09-21T11:55:27.780Z,53.81
2022-09-21T11:56:22.972Z,54.40
2022-09-21T11:57:18.081Z,54.28